createdAt,value
2024-01-15T00:00:43.077Z,91383.00
2024-01-15T00:01:43.108Z,91382.00
2024-01-15T00:02:43.146Z,91380.00
2024-01-15T00:03:45.041Z,91375.00
2024-01-15T00:04:43.201Z,91377.00
2024-01-15T00:05:43.192Z,91375.00
2024-01-15T00:06:43.275Z,91377.00
2024-01-15T00:07:43.150Z,91375.00
2024-01-15T00:08:43.136Z,91377.00
2024-01-15T00:09:43.151Z,91377.00
2024-01-15T00:10:43.122Z,91372.00
2024-01-15T00:11:43.124Z,91382.00
2024-01-15T00:12:43.196Z,91381.00
2024-01-15T00:13:43.111Z,91377.00
2024-01-15T00:14:43.101Z,91378.00
2024-01-15T00:15:43.177Z,91375.00
2024-01-15T00:16:43.090Z,91375.00
2024-01-15T00:17:43.404Z,91374.00
2024-01-15T00:18:43.212Z,91370.00
2024-01-15T00:19:43.195Z,91369.00
2024-01-15T00:20:43.051Z,91369.00
2024-01-15T00:21:43.188Z,91370.00
2024-01-15T00:22:43.053Z,91363.00
2024-01-15T00:23:43.025Z,91360.00
2024-01-15T00:24:43.109Z,91367.00
2024-01-15T00:25:43.035Z,91363.00
2024-01-15T00:26:43.024Z,91357.00
2024-01-15T00:27:43.133Z,91355.00
2024-01-15T00:28:42.983Z,91354.00
2024-01-15T00:29:42.975Z,91349.00
2024-01-15T00:30:43.049Z,91345.00
2024-01-15T00:31:43.294Z,91343.00
2024-01-15T00:32:43.017Z,91345.00
2024-01-15T00:33:43.097Z,91343.00
2024-01-15T00:34:43.027Z,91347.00
2024-01-15T00:35:42.894Z,91346.00
2024-01-15T00:36:42.908Z,91352.00
2024-01-15T00:37:42.889Z,91347.00
2024-01-15T00:38:42.851Z,91347.00
2024-01-15T00:39:42.893Z,91342.00
2024-01-15T00:40:42.910Z,91339.00
2024-01-15T00:41:42.950Z,91336.00
2024-01-15T00:42:43.008Z,91336.00
2024-01-15T00:43:43.041Z,91334.00
2024-01-15T00:44:43.094Z,91334.00
2024-01-15T00:45:43.199Z,91332.00
2024-01-15T00:46:43.251Z,91331.00
2024-01-15T00:47:43.294Z,91333.00
2024-01-15T00:48:43.358Z,91334.00
2024-01-15T00:49:43.402Z,91333.00
2024-01-15T00:50:43.381Z,91331.00
2024-01-15T00:51:43.482Z,91327.00
2024-01-15T00:52:43.468Z,91323.00
2024-01-15T00:53:43.493Z,91325.00
2024-01-15T00:54:43.573Z,91326.00
2024-01-15T00:55:43.584Z,91330.00
2024-01-15T00:56:43.617Z,91322.00
2024-01-15T00:57:43.678Z,91327.00
2024-01-15T00:58:43.700Z,91328.00
2024-01-15T00:59:43.855Z,91322.00
2024-01-15T01:00:43.872Z,91324.00
2024-01-15T01:01:43.902Z,91328.00
2024-01-15T01:02:43.958Z,91333.00
2024-01-15T01:03:44.033Z,91331.00
2024-01-15T01:04:43.989Z,91334.00
2024-01-15T01:05:44.110Z,91335.00
2024-01-15T01:06:44.096Z,91337.00
2024-01-15T01:07:44.102Z,91328.00
2024-01-15T01:08:44.170Z,91327.00
2024-01-15T01:09:44.296Z,91325.00
2024-01-15T01:10:44.295Z,91327.00
2024-01-15T01:11:44.366Z,91327.00
2024-01-15T01:12:44.516Z,91326.00
2024-01-15T01:13:44.492Z,91325.00
2024-01-15T01:14:44.520Z,91326.00
2024-01-15T01:15:44.706Z,91328.00
2024-01-15T01:16:44.656Z,91326.00
2024-01-15T01:17:44.833Z,91326.00
2024-01-15T01:18:44.950Z,91329.00
2024-01-15T01:19:44.969Z,91331.00
2024-01-15T01:20:44.907Z,91328.00
2024-01-15T01:21:45.107Z,91325.00
2024-01-15T01:22:45.017Z,91324.00
2024-01-15T01:23:45.107Z,91324.00
2024-01-15T01:24:45.177Z,91321.00
2024-01-15T01:25:45.234Z,91319.00
2024-01-15T01:26:45.245Z,91316.00
2024-01-15T01:27:45.404Z,91309.00
2024-01-15T01:28:45.368Z,91312.00
2024-01-15T01:29:45.428Z,91312.00
2024-01-15T01:30:45.595Z,91317.00
2024-01-15T01:31:45.653Z,91315.00
2024-01-15T01:32:45.673Z,91316.00
2024-01-15T01:33:45.850Z,91315.00
2024-01-15T01:34:45.796Z,91313.00
2024-01-15T01:35:45.810Z,91314.00
2024-01-15T01:36:45.881Z,91310.00
2024-01-15T01:37:45.872Z,91311.00
2024-01-15T01:38:45.932Z,91314.00
2024-01-15T01:39:46.201Z,91317.00
2024-01-15T01:40:46.054Z,91316.00
2024-01-15T01:41:46.120Z,91314.00
2024-01-15T01:42:46.296Z,91319.00
2024-01-15T01:43:46.256Z,91316.00
2024-01-15T01:44:46.338Z,91318.00
2024-01-15T01:45:46.393Z,91312.00
2024-01-15T01:46:46.442Z,91321.00
2024-01-15T01:47:46.523Z,91316.00
2024-01-15T01:48:46.627Z,91316.00
2024-01-15T01:49:46.664Z,91315.00
2024-01-15T01:50:47.356Z,91316.00
2024-01-15T01:51:46.763Z,91313.00
2024-01-15T01:52:46.781Z,91313.00
2024-01-15T01:53:46.835Z,91310.00
2024-01-15T01:54:46.990Z,91311.00
2024-01-15T01:55:46.955Z,91313.00
2024-01-15T01:56:47.034Z,91311.00
2024-01-15T01:57:47.170Z,91305.00
2024-01-15T01:58:47.142Z,91307.00
2024-01-15T01:59:47.205Z,91307.00
2024-01-15T02:00:47.304Z,91306.00
2024-01-15T02:01:47.399Z,91306.00
2024-01-15T02:02:47.394Z,91307.00
2024-01-15T02:03:47.561Z,91305.00
2024-01-15T02:04:47.542Z,91305.00
2024-01-15T02:05:47.573Z,91305.00
2024-01-15T02:06:47.689Z,91302.00
2024-01-15T02:07:47.692Z,91300.00
2024-01-15T02:08:47.748Z,91297.00
2024-01-15T02:09:47.907Z,91294.00
2024-01-15T02:10:47.882Z,91293.00
2024-01-15T02:11:47.949Z,91293.00
2024-01-15T02:12:48.080Z,91289.00
2024-01-15T02:13:48.057Z,91286.00
2024-01-15T02:14:48.098Z,91282.00
2024-01-15T02:15:48.216Z,91282.00
2024-01-15T02:16:48.220Z,91284.00
2024-01-15T02:17:48.298Z,91283.00
2024-01-15T02:18:48.428Z,91284.00
2024-01-15T02:19:48.508Z,91285.00
2024-01-15T02:20:48.448Z,91288.00
2024-01-15T02:21:48.521Z,91285.00
2024-01-15T02:22:48.556Z,91286.00
2024-01-15T02:23:48.613Z,91288.00
2024-01-15T02:24:48.745Z,91291.00
2024-01-15T02:25:48.732Z,91290.00
2024-01-15T02:26:48.796Z,91288.00
2024-01-15T02:27:49.030Z,91287.00
2024-01-15T02:28:48.913Z,91288.00
2024-01-15T02:29:48.971Z,91286.00
2024-01-15T02:30:49.172Z,91282.00
2024-01-15T02:31:49.224Z,91282.00
2024-01-15T02:32:49.221Z,91283.00
2024-01-15T02:33:49.358Z,91281.00
2024-01-15T02:34:49.511Z,91278.00
2024-01-15T02:35:49.306Z,91276.00
2024-01-15T02:36:49.425Z,91273.00
2024-01-15T02:37:49.414Z,91273.00
2024-01-15T02:38:49.445Z,91268.00
2024-01-15T02:39:49.538Z,91268.00
2024-01-15T02:40:49.557Z,91265.00
2024-01-15T02:41:49.600Z,91265.00
2024-01-15T02:42:49.705Z,91263.00
2024-01-15T02:43:49.700Z,91267.00
2024-01-15T02:44:49.773Z,91265.00
2024-01-15T02:45:49.914Z,91269.00
2024-01-15T02:46:49.864Z,91267.00
2024-01-15T02:47:49.921Z,91266.00
2024-01-15T02:48:49.981Z,91267.00
2024-01-15T02:49:50.049Z,91267.00
2024-01-15T02:50:50.074Z,91270.00
2024-01-15T02:51:50.147Z,91265.00
2024-01-15T02:52:50.162Z,91261.00
2024-01-15T02:53:50.226Z,91257.00
2024-01-15T02:54:50.310Z,91265.00
2024-01-15T02:55:50.363Z,91269.00
2024-01-15T02:56:50.378Z,91270.00
2024-01-15T02:57:50.516Z,91269.00
2024-01-15T02:58:50.447Z,91273.00
2024-01-15T02:59:50.493Z,91271.00
2024-01-15T03:00:50.599Z,91267.00
2024-01-15T03:01:50.636Z,91269.00
2024-01-15T03:02:50.738Z,91268.00
2024-01-15T03:03:50.771Z,91264.00
2024-01-15T03:04:50.754Z,91261.00
2024-01-15T03:05:50.929Z,91258.00
2024-01-15T03:06:50.943Z,91260.00
2024-01-15T03:07:50.906Z,91263.00
2024-01-15T03:08:50.951Z,91259.00
2024-01-15T03:09:51.057Z,91259.00
2024-01-15T03:10:51.083Z,91256.00
2024-01-15T03:11:51.120Z,91259.00
2024-01-15T03:12:51.199Z,91258.00
2024-01-15T03:13:51.213Z,91251.00
2024-01-15T03:14:51.272Z,91247.00
2024-01-15T03:15:51.362Z,91242.00
2024-01-15T03:16:51.410Z,91241.00
2024-01-15T03:17:51.502Z,91245.00
2024-01-15T03:18:51.579Z,91241.00
2024-01-15T03:19:51.556Z,91238.00
2024-01-15T03:20:51.599Z,91237.00
2024-01-15T03:21:51.734Z,91234.00
2024-01-15T03:22:51.671Z,91231.00
2024-01-15T03:23:51.718Z,91232.00
2024-01-15T03:24:51.821Z,91234.00
2024-01-15T03:25:51.844Z,91233.00
2024-01-15T03:26:51.889Z,91233.00
2024-01-15T03:27:52.014Z,91229.00
2024-01-15T03:28:52.008Z,91225.00
2024-01-15T03:29:52.058Z,91224.00
2024-01-15T03:30:52.228Z,91223.00
2024-01-15T03:31:52.206Z,91219.00
2024-01-15T03:32:52.269Z,91218.00
2024-01-15T03:33:52.302Z,91221.00
2024-01-15T03:34:52.344Z,91219.00
2024-01-15T03:35:52.360Z,91220.00
2024-01-15T03:36:52.423Z,91224.00
2024-01-15T03:37:52.484Z,91222.00
2024-01-15T03:38:52.524Z,91223.00
2024-01-15T03:39:52.718Z,91223.00
2024-01-15T03:40:52.736Z,91223.00
2024-01-15T03:41:52.681Z,91222.00
2024-01-15T03:42:52.802Z,91226.00
2024-01-15T03:43:52.809Z,91224.00
2024-01-15T03:44:52.872Z,91222.00
2024-01-15T03:45:52.991Z,91219.00
2024-01-15T03:46:53.043Z,91219.00
2024-01-15T03:47:53.134Z,91215.00
2024-01-15T03:48:53.161Z,91216.00
2024-01-15T03:49:53.196Z,91213.00
2024-01-15T03:50:53.215Z,91212.00
2024-01-15T03:51:53.461Z,91215.00
2024-01-15T03:52:53.478Z,91209.00
2024-01-15T03:53:53.474Z,91210.00
2024-01-15T03:54:53.560Z,91209.00
2024-01-15T03:55:53.517Z,91210.00
2024-01-15T03:56:53.535Z,91215.00
2024-01-15T03:57:53.645Z,91220.00
2024-01-15T03:58:53.634Z,91214.00
2024-01-15T03:59:53.706Z,91216.00
2024-01-15T04:00:53.823Z,91215.00
2024-01-15T04:01:53.796Z,91213.00
2024-01-15T04:02:53.850Z,91212.00
2024-01-15T04:03:53.937Z,91212.00
2024-01-15T04:04:54.006Z,91213.00
2024-01-15T04:05:54.006Z,91207.00
2024-01-15T04:06:54.068Z,91211.00
2024-01-15T04:07:54.086Z,91210.00
2024-01-15T04:08:54.126Z,91212.00
2024-01-15T04:09:54.261Z,91216.00
2024-01-15T04:10:54.240Z,91215.00
2024-01-15T04:11:54.279Z,91210.00
2024-01-15T04:12:54.327Z,91206.00
2024-01-15T04:13:54.411Z,91205.00
2024-01-15T04:14:54.416Z,91205.00
2024-01-15T04:15:54.491Z,91204.00
2024-01-15T04:16:54.508Z,91200.00
2024-01-15T04:17:54.559Z,91192.00
2024-01-15T04:18:54.631Z,91189.00
2024-01-15T04:19:54.703Z,91190.00
2024-01-15T04:20:54.658Z,91194.00
2024-01-15T04:21:54.783Z,91190.00
2024-01-15T04:22:54.747Z,91191.00
2024-01-15T04:23:54.816Z,91190.00
2024-01-15T04:24:54.913Z,91190.00
2024-01-15T04:25:54.896Z,91187.00
2024-01-15T04:26:55.181Z,91188.00
2024-01-15T04:27:55.030Z,91188.00
2024-01-15T04:28:55.031Z,91186.00
2024-01-15T04:29:55.099Z,91186.00
2024-01-15T04:30:55.282Z,91188.00
2024-01-15T04:31:55.226Z,91188.00
2024-01-15T04:32:55.276Z,91184.00
2024-01-15T04:33:55.417Z,91180.00
2024-01-15T04:34:55.324Z,91182.00
2024-01-15T04:35:55.368Z,91188.00
2024-01-15T04:36:55.464Z,91188.00
2024-01-15T04:37:55.465Z,91187.00
2024-01-15T04:38:55.508Z,91191.00
2024-01-15T04:39:55.596Z,91188.00
2024-01-15T04:40:58.405Z,91186.00
2024-01-15T04:41:55.598Z,91189.00
2024-01-15T04:42:55.601Z,91191.00
2024-01-15T04:43:55.586Z,91196.00
2024-01-15T04:44:55.580Z,91193.00
2024-01-15T04:45:55.632Z,91188.00
2024-01-15T04:46:55.570Z,91190.00
2024-01-15T04:47:55.565Z,91188.00
2024-01-15T04:48:55.648Z,91180.00
2024-01-15T04:49:55.598Z,91175.00
2024-01-15T04:50:55.544Z,91170.00
2024-01-15T04:51:55.600Z,91170.00
2024-01-15T04:52:55.544Z,91170.00
2024-01-15T04:53:55.541Z,91172.00
2024-01-15T04:54:55.579Z,91172.00
2024-01-15T04:55:55.533Z,91167.00
2024-01-15T04:56:55.536Z,91159.00
2024-01-15T04:57:55.564Z,91161.00
2024-01-15T04:58:55.522Z,91169.00
2024-01-15T04:59:55.516Z,91172.00
2024-01-15T05:01:03.061Z,91163.00
2024-01-15T05:02:02.848Z,91167.00
2024-01-15T05:03:02.890Z,91164.00
2024-01-15T05:04:03.012Z,91168.00
2024-01-15T05:05:02.834Z,91164.00
2024-01-15T05:06:02.902Z,91170.00
2024-01-15T05:07:02.937Z,91165.00
2024-01-15T05:08:02.817Z,91169.00
2024-01-15T05:09:02.823Z,91171.00
2024-01-15T05:10:02.931Z,91170.00
2024-01-15T05:11:02.813Z,91169.00
2024-01-15T05:12:02.799Z,91167.00
2024-01-15T05:13:02.790Z,91165.00
2024-01-15T05:14:02.800Z,91163.00
2024-01-15T05:15:02.775Z,91170.00
2024-01-15T05:16:02.809Z,91163.00
2024-01-15T05:17:02.771Z,91163.00
2024-01-15T05:18:02.837Z,91164.00
2024-01-15T05:19:02.850Z,91161.00
2024-01-15T05:20:02.956Z,91159.00
2024-01-15T05:21:02.710Z,91152.00
2024-01-15T05:22:02.709Z,91154.00
2024-01-15T05:23:02.693Z,91154.00
2024-01-15T05:24:02.672Z,91152.00
2024-01-15T05:25:02.663Z,91153.00
2024-01-15T05:26:02.638Z,91155.00
2024-01-15T05:27:02.657Z,91163.00
2024-01-15T05:28:02.629Z,91165.00
2024-01-15T05:29:02.618Z,91173.00
2024-01-15T05:30:02.592Z,91176.00
2024-01-15T05:31:02.682Z,91170.00
2024-01-15T05:32:03.100Z,91173.00
2024-01-15T05:33:02.639Z,91172.00
2024-01-15T05:34:02.685Z,91176.00
2024-01-15T05:35:02.709Z,91175.00
2024-01-15T05:36:02.705Z,91173.00
2024-01-15T05:37:02.770Z,91164.00
2024-01-15T05:38:02.979Z,91172.00
2024-01-15T05:39:02.841Z,91176.00
2024-01-15T05:40:02.908Z,91174.00
2024-01-15T05:41:02.922Z,91172.00
2024-01-15T05:42:02.983Z,91172.00
2024-01-15T05:43:03.016Z,91171.00
2024-01-15T05:44:03.061Z,91181.00
2024-01-15T05:45:03.108Z,91180.00
2024-01-15T05:46:03.231Z,91174.00
2024-01-15T05:47:03.197Z,91179.00
2024-01-15T05:48:03.300Z,91184.00
2024-01-15T05:49:03.423Z,91184.00
2024-01-15T05:50:03.438Z,91183.00
2024-01-15T05:51:03.357Z,91180.00
2024-01-15T05:52:03.392Z,91175.00
2024-01-15T05:53:03.432Z,91175.00
2024-01-15T05:54:03.481Z,91174.00
2024-01-15T05:55:03.524Z,91174.00
2024-01-15T05:56:03.545Z,91177.00
2024-01-15T05:57:03.584Z,91182.00
2024-01-15T05:58:03.601Z,91183.00
2024-01-15T05:59:03.669Z,91178.00
2024-01-15T06:00:03.777Z,91182.00
2024-01-15T06:01:03.784Z,91181.00
2024-01-15T06:02:03.788Z,91175.00
2024-01-15T06:03:03.825Z,91179.00
2024-01-15T06:04:03.995Z,91182.00
2024-01-15T06:05:03.973Z,91184.00
2024-01-15T06:06:04.201Z,91184.00
2024-01-15T06:07:04.045Z,91183.00
2024-01-15T06:08:04.016Z,91178.00
2024-01-15T06:09:04.071Z,91177.00
2024-01-15T06:10:04.093Z,91179.00
2024-01-15T06:11:04.140Z,91177.00
2024-01-15T06:12:04.172Z,91179.00
2024-01-15T06:13:04.216Z,91181.00
2024-01-15T06:14:04.262Z,91176.00
2024-01-15T06:15:04.302Z,91178.00
2024-01-15T06:16:06.692Z,91181.00
2024-01-15T06:17:04.438Z,91188.00
2024-01-15T06:18:04.560Z,91187.00
2024-01-15T06:19:04.714Z,91187.00
2024-01-15T06:20:04.633Z,91185.00
2024-01-15T06:21:04.594Z,91187.00
2024-01-15T06:22:04.668Z,91188.00
2024-01-15T06:23:04.638Z,91190.00
2024-01-15T06:24:04.662Z,91184.00
2024-01-15T06:25:04.700Z,91182.00
2024-01-15T06:26:04.737Z,91184.00
2024-01-15T06:27:04.769Z,91190.00
2024-01-15T06:28:04.833Z,91179.00
2024-01-15T06:29:04.881Z,91183.00
2024-01-15T06:30:04.994Z,91178.00
2024-01-15T06:31:05.063Z,91176.00
2024-01-15T06:32:05.140Z,91183.00
2024-01-15T06:33:05.230Z,91190.00
2024-01-15T06:34:05.229Z,91183.00
2024-01-15T06:35:05.080Z,91183.00
2024-01-15T06:36:06.081Z,91184.00
2024-01-15T06:37:05.084Z,91174.00
2024-01-15T06:38:05.068Z,91174.00
2024-01-15T06:39:05.072Z,91179.00
2024-01-15T06:40:05.102Z,91185.00
2024-01-15T06:41:05.076Z,91183.00
2024-01-15T06:42:05.076Z,91177.00
2024-01-15T06:43:05.076Z,91175.00
2024-01-15T06:44:05.088Z,91181.00
2024-01-15T06:45:05.076Z,91182.00
2024-01-15T06:46:07.549Z,91178.00
2024-01-15T06:47:05.088Z,91178.00
2024-01-15T06:48:05.142Z,91179.00
2024-01-15T06:49:05.196Z,91180.00
2024-01-15T06:50:05.127Z,91179.00
2024-01-15T06:51:05.092Z,91170.00
2024-01-15T06:52:05.084Z,91168.00
2024-01-15T06:53:05.065Z,91173.00
2024-01-15T06:54:05.058Z,91179.00
2024-01-15T06:55:05.061Z,91180.00
2024-01-15T06:56:05.050Z,91170.00
2024-01-15T06:57:05.052Z,91166.00
2024-01-15T06:58:05.036Z,91168.00
2024-01-15T06:59:05.025Z,91174.00
2024-01-15T07:00:05.013Z,91179.00
2024-01-15T07:01:05.040Z,91181.00
2024-01-15T07:02:05.003Z,91183.00
2024-01-15T07:03:05.028Z,91181.00
2024-01-15T07:04:05.021Z,91180.00
2024-01-15T07:05:05.004Z,91187.00
2024-01-15T07:06:04.960Z,91188.00
2024-01-15T07:07:04.952Z,91183.00
2024-01-15T07:08:04.946Z,91185.00
2024-01-15T07:09:04.934Z,91189.00
2024-01-15T07:10:04.907Z,91184.00
2024-01-15T07:11:04.893Z,91183.00
2024-01-15T07:12:04.880Z,91178.00
2024-01-15T07:13:04.881Z,91179.00
2024-01-15T07:14:04.857Z,91186.00
2024-01-15T07:15:05.495Z,91176.00
2024-01-15T07:16:04.856Z,91180.00
2024-01-15T07:17:04.809Z,91179.00
2024-01-15T07:18:04.833Z,91186.00
2024-01-15T07:19:04.890Z,91190.00
2024-01-15T07:20:04.830Z,91180.00
2024-01-15T07:21:04.741Z,91182.00
2024-01-15T07:22:04.781Z,91179.00
2024-01-15T07:23:04.713Z,91196.00
2024-01-15T07:24:04.701Z,91187.00
2024-01-15T07:25:04.734Z,91188.00
2024-01-15T07:26:04.670Z,91188.00
2024-01-15T07:27:04.686Z,91189.00
2024-01-15T07:28:04.641Z,91192.00
2024-01-15T07:29:04.636Z,91188.00
2024-01-15T07:30:05.537Z,91199.00
2024-01-15T07:31:05.673Z,91199.00
2024-01-15T07:32:04.590Z,91202.00
2024-01-15T07:33:04.638Z,91195.00
2024-01-15T07:34:04.580Z,91204.00
2024-01-15T07:35:04.541Z,91206.00
2024-01-15T07:36:04.525Z,91210.00
2024-01-15T07:37:04.504Z,91208.00
2024-01-15T07:38:04.482Z,91207.00
2024-01-15T07:39:04.471Z,91206.00
2024-01-15T07:40:04.524Z,91208.00
2024-01-15T07:41:04.453Z,91205.00
2024-01-15T07:42:04.452Z,91202.00
2024-01-15T07:43:04.429Z,91203.00
2024-01-15T07:44:04.419Z,91213.00
2024-01-15T07:45:04.553Z,91216.00
2024-01-15T07:46:04.542Z,91211.00
2024-01-15T07:47:04.506Z,91218.00
2024-01-15T07:48:04.661Z,91219.00
2024-01-15T07:49:04.661Z,91213.00
2024-01-15T07:50:06.391Z,91210.00
2024-01-15T07:51:04.644Z,91211.00
2024-01-15T07:52:04.689Z,91214.00
2024-01-15T07:53:04.725Z,91217.00
2024-01-15T07:54:04.776Z,91214.00
2024-01-15T07:55:05.254Z,91215.00
2024-01-15T07:56:04.836Z,91216.00
2024-01-15T07:57:04.878Z,91220.00
2024-01-15T07:58:11.916Z,91218.00
2024-01-15T07:59:05.924Z,91215.00
2024-01-15T08:00:04.916Z,91217.00
2024-01-15T08:01:04.975Z,91214.00
2024-01-15T08:02:04.904Z,91213.00
2024-01-15T08:03:04.899Z,91219.00
2024-01-15T08:04:04.953Z,91217.00
2024-01-15T08:05:04.944Z,91213.00
2024-01-15T08:06:05.035Z,91216.00
2024-01-15T08:07:04.885Z,91217.00
2024-01-15T08:08:05.854Z,91215.00
2024-01-15T08:09:04.912Z,91214.00
2024-01-15T08:10:04.865Z,91218.00
2024-01-15T08:11:04.810Z,91221.00
2024-01-15T08:12:04.821Z,91222.00
2024-01-15T08:13:04.815Z,91218.00
2024-01-15T08:14:04.805Z,91218.00
2024-01-15T08:15:04.785Z,91223.00
2024-01-15T08:16:04.809Z,91224.00
2024-01-15T08:17:04.827Z,91223.00
2024-01-15T08:18:04.958Z,91220.00
2024-01-15T08:19:05.046Z,91226.00
2024-01-15T08:20:05.079Z,91229.00
2024-01-15T08:21:05.036Z,91229.00
2024-01-15T08:22:05.093Z,91229.00
2024-01-15T08:23:05.154Z,91228.00
2024-01-15T08:24:05.236Z,91225.00
2024-01-15T08:25:05.221Z,91224.00
2024-01-15T08:26:05.255Z,91226.00
2024-01-15T08:27:05.297Z,91222.00
2024-01-15T08:28:05.317Z,91222.00
2024-01-15T08:29:06.978Z,91224.00
2024-01-15T08:30:05.321Z,91227.00
2024-01-15T08:31:07.092Z,91227.00
2024-01-15T08:32:05.324Z,91230.00
2024-01-15T08:33:11.452Z,91231.00
2024-01-15T08:34:07.069Z,91230.00
2024-01-15T08:35:05.352Z,91228.00
2024-01-15T08:36:05.194Z,91224.00
2024-01-15T08:37:05.176Z,91229.00
2024-01-15T08:38:05.176Z,91222.00
2024-01-15T08:39:05.236Z,91221.00
2024-01-15T08:40:06.027Z,91226.00
2024-01-15T08:41:05.131Z,91222.00
2024-01-15T08:42:05.114Z,91218.00
2024-01-15T08:43:05.104Z,91222.00
2024-01-15T08:44:05.094Z,91225.00
2024-01-15T08:45:05.227Z,91218.00
2024-01-15T08:46:05.130Z,91213.00
2024-01-15T08:47:05.559Z,91205.00
2024-01-15T08:48:05.120Z,91213.00
2024-01-15T08:49:05.073Z,91220.00
2024-01-15T08:50:05.035Z,91218.00
2024-01-15T08:51:05.562Z,91217.00
2024-01-15T08:52:04.991Z,91215.00
2024-01-15T08:53:04.989Z,91215.00
2024-01-15T08:54:04.936Z,91211.00
2024-01-15T08:55:05.566Z,91211.00
2024-01-15T08:56:04.914Z,91215.00
2024-01-15T08:57:04.931Z,91219.00
2024-01-15T08:58:04.948Z,91218.00
2024-01-15T08:59:05.007Z,91219.00
2024-01-15T09:00:05.990Z,91221.00
2024-01-15T09:01:05.220Z,91218.00
2024-01-15T09:02:05.153Z,91217.00
2024-01-15T09:03:05.990Z,91220.00
2024-01-15T09:04:05.354Z,91221.00
2024-01-15T09:05:05.508Z,91219.00
2024-01-15T09:06:05.331Z,91213.00
2024-01-15T09:07:05.393Z,91211.00
2024-01-15T09:08:05.427Z,91221.00
2024-01-15T09:09:05.512Z,91219.00
2024-01-15T09:10:05.546Z,91217.00
2024-01-15T09:11:05.594Z,91233.00
2024-01-15T09:12:05.648Z,91230.00
2024-01-15T09:13:05.702Z,91227.00
2024-01-15T09:14:05.741Z,91218.00
2024-01-15T09:15:05.890Z,91220.00
2024-01-15T09:16:06.188Z,91221.00
2024-01-15T09:17:05.889Z,91226.00
2024-01-15T09:18:08.231Z,91230.00
2024-01-15T09:19:05.973Z,91233.00
2024-01-15T09:20:05.900Z,91234.00
2024-01-15T09:21:05.854Z,91237.00
2024-01-15T09:22:05.814Z,91226.00
2024-01-15T09:23:05.798Z,91229.00
2024-01-15T09:24:05.765Z,91234.00
2024-01-15T09:25:05.851Z,91228.00
2024-01-15T09:26:06.578Z,91212.00
2024-01-15T09:27:05.755Z,91219.00
2024-01-15T09:28:05.684Z,91210.00
2024-01-15T09:29:05.662Z,91208.00
2024-01-15T09:30:05.672Z,91211.00
2024-01-15T09:31:05.819Z,91212.00
2024-01-15T09:32:05.689Z,91215.00
2024-01-15T09:33:05.647Z,91220.00
2024-01-15T09:34:06.676Z,91210.00
2024-01-15T09:35:05.563Z,91209.00
2024-01-15T09:36:05.608Z,91208.00
2024-01-15T09:37:05.539Z,91217.00
2024-01-15T09:38:05.527Z,91213.00
2024-01-15T09:39:05.518Z,91207.00
2024-01-15T09:40:05.454Z,91220.00
2024-01-15T09:41:05.428Z,91216.00
2024-01-15T09:42:05.378Z,91205.00
2024-01-15T09:43:05.379Z,91210.00
2024-01-15T09:44:05.280Z,91217.00
2024-01-15T09:45:05.231Z,91206.00
2024-01-15T09:46:05.203Z,91208.00
2024-01-15T09:47:05.095Z,91208.00
2024-01-15T09:48:05.067Z,91213.00
2024-01-15T09:49:05.095Z,91215.00
2024-01-15T09:50:05.077Z,91210.00
2024-01-15T09:51:04.943Z,91213.00
2024-01-15T09:52:09.467Z,91210.00
2024-01-15T09:53:05.830Z,91211.00
2024-01-15T09:54:05.614Z,91210.00
2024-01-15T09:55:04.782Z,91208.00
2024-01-15T09:56:04.568Z,91209.00
2024-01-15T09:57:04.469Z,91214.00
2024-01-15T09:58:04.468Z,91208.00
2024-01-15T09:59:04.305Z,91198.00
2024-01-15T10:00:04.234Z,91193.00
2024-01-15T10:01:07.107Z,91190.00
2024-01-15T10:02:04.062Z,91184.00
2024-01-15T10:03:03.952Z,91181.00
2024-01-15T10:04:03.978Z,91183.00
2024-01-15T10:05:03.887Z,91173.00
2024-01-15T10:06:03.778Z,91165.00
2024-01-15T10:07:03.751Z,91163.00
2024-01-15T10:08:03.607Z,91164.00
2024-01-15T10:09:03.542Z,91160.00
2024-01-15T10:10:03.513Z,91156.00
2024-01-15T10:11:03.442Z,91153.00
2024-01-15T10:12:03.397Z,91160.00
2024-01-15T10:13:03.375Z,91166.00
2024-01-15T10:14:03.307Z,91168.00
2024-01-15T10:15:03.325Z,91161.00
2024-01-15T10:16:03.273Z,91157.00
2024-01-15T10:17:03.165Z,91160.00
2024-01-15T10:18:03.215Z,91161.00
2024-01-15T10:19:03.173Z,91166.00
2024-01-15T10:20:03.045Z,91164.00
2024-01-15T10:21:02.898Z,91164.00
2024-01-15T10:22:02.872Z,91163.00
2024-01-15T10:23:02.729Z,91163.00
2024-01-15T10:24:02.632Z,91161.00
2024-01-15T10:25:02.545Z,91161.00
2024-01-15T10:26:02.427Z,91162.00
2024-01-15T10:27:03.116Z,91147.00
2024-01-15T10:28:02.320Z,91141.00
2024-01-15T10:29:02.099Z,91142.00
2024-01-15T10:30:02.018Z,91138.00
2024-01-15T10:31:02.167Z,91126.00
2024-01-15T10:32:02.063Z,91128.00
2024-01-15T10:33:02.005Z,91121.00
2024-01-15T10:34:01.985Z,91116.00
2024-01-15T10:35:01.988Z,91111.00
2024-01-15T10:36:01.911Z,91108.00
2024-01-15T10:37:01.895Z,91105.00
2024-01-15T10:38:01.854Z,91106.00
2024-01-15T10:39:01.801Z,91106.00
2024-01-15T10:40:01.784Z,91104.00
2024-01-15T10:41:01.743Z,91095.00
2024-01-15T10:42:01.695Z,91108.00
2024-01-15T10:43:01.718Z,91108.00
2024-01-15T10:44:01.620Z,91114.00
2024-01-15T10:45:01.872Z,91102.00
2024-01-15T10:46:01.599Z,91087.00
2024-01-15T10:47:01.465Z,91082.00
2024-01-15T10:48:01.644Z,91075.00
2024-01-15T10:49:01.406Z,91077.00
2024-01-15T10:50:01.576Z,91079.00
2024-01-15T10:51:01.255Z,91076.00
2024-01-15T10:52:01.329Z,91070.00
2024-01-15T10:53:01.206Z,91063.00
2024-01-15T10:54:01.203Z,91061.00
2024-01-15T10:55:05.267Z,91056.00
2024-01-15T10:56:02.152Z,91059.00
2024-01-15T10:57:01.095Z,91053.00
2024-01-15T10:58:01.112Z,91058.00
2024-01-15T10:59:01.220Z,91052.00
2024-01-15T11:00:00.999Z,91060.00
2024-01-15T11:01:01.065Z,91057.00
2024-01-15T11:02:01.011Z,91055.00
2024-01-15T11:03:00.865Z,91051.00
2024-01-15T11:04:00.949Z,91046.00
2024-01-15T11:05:00.859Z,91040.00
2024-01-15T11:06:00.820Z,91043.00
2024-01-15T11:07:00.799Z,91042.00
2024-01-15T11:08:00.748Z,91048.00
2024-01-15T11:09:00.753Z,91049.00
2024-01-15T11:10:00.730Z,91050.00
2024-01-15T11:11:00.707Z,91039.00
2024-01-15T11:12:00.653Z,91039.00
2024-01-15T11:13:00.825Z,91031.00
2024-01-15T11:14:00.643Z,91031.00
2024-01-15T11:15:00.621Z,91022.00
2024-01-15T11:16:00.850Z,91019.00
2024-01-15T11:17:00.676Z,91009.00
2024-01-15T11:18:00.893Z,91009.00
2024-01-15T11:19:01.712Z,91007.00
2024-01-15T11:20:00.809Z,91010.00
2024-01-15T11:21:00.706Z,91012.00
2024-01-15T11:22:00.860Z,91006.00
2024-01-15T11:23:00.708Z,91000.00
2024-01-15T11:24:00.836Z,90995.00
2024-01-15T11:25:00.933Z,90993.00
2024-01-15T11:26:00.960Z,90998.00
2024-01-15T11:27:00.956Z,90992.00
2024-01-15T11:28:01.025Z,90985.00
2024-01-15T11:29:00.984Z,90990.00
2024-01-15T11:30:01.024Z,91000.00
2024-01-15T11:31:01.153Z,90991.00
2024-01-15T11:32:01.273Z,90995.00
2024-01-15T11:33:01.274Z,90982.00
2024-01-15T11:34:01.281Z,90992.00
2024-01-15T11:35:01.450Z,90996.00
2024-01-15T11:36:01.241Z,90986.00
2024-01-15T11:37:01.366Z,90991.00
2024-01-15T11:38:01.301Z,90987.00
2024-01-15T11:39:01.326Z,90984.00
2024-01-15T11:40:01.387Z,90984.00
2024-01-15T11:41:01.380Z,90977.00
2024-01-15T11:42:01.560Z,90986.00
2024-01-15T11:43:01.688Z,90990.00
2024-01-15T11:44:01.460Z,90989.00
2024-01-15T11:45:01.599Z,90988.00